createdAt,value
2022-11-05T00:01:16.511Z,100526.80
2022-11-05T00:04:05.006Z,100529.69
2022-11-05T00:06:53.293Z,100530.83
2022-11-05T00:09:32.940Z,100534.19
2022-11-05T00:12:23.658Z,100539.24
2022-11-05T00:15:12.451Z,100544.58
2022-11-05T00:17:43.498Z,100551.17
2022-11-05T00:20:14.558Z,100551.45
2022-11-05T00:23:02.881Z,100549.50
2022-11-05T00:25:33.350Z,100548.56
2022-11-05T00:28:05.039Z,100555.71
2022-11-05T00:30:35.533Z,100560.35
2022-11-05T00:33:05.932Z,100561.48
2022-11-05T00:35:36.568Z,100560.13
2022-11-05T00:38:07.187Z,100561.40
2022-11-05T00:40:38.584Z,100559.66
2022-11-05T00:43:26.680Z,100561.42
2022-11-05T00:45:57.715Z,100560.40
2022-11-05T00:48:45.638Z,100563.56
2022-11-05T00:51:16.038Z,100560.73
2022-11-05T00:53:46.759Z,100567.28
2022-11-05T00:56:17.502Z,100572.52
2022-11-05T00:58:48.823Z,100578.25
2022-11-05T01:01:19.271Z,100581.08
2022-11-05T01:03:51.944Z,100585.36
2022-11-05T01:06:23.066Z,100587.09
2022-11-05T01:08:53.453Z,100586.23
2022-11-05T01:11:34.031Z,100588.73
2022-11-05T01:14:07.667Z,100593.17
2022-11-05T01:16:39.420Z,100593.33
2022-11-05T01:19:11.436Z,100597.71
2022-11-05T01:21:42.321Z,100598.20
2022-11-05T01:24:13.892Z,100596.98
2022-11-05T01:26:44.247Z,100601.09
2022-11-05T01:29:14.711Z,100600.18
2022-11-05T01:31:45.560Z,100597.79
2022-11-05T01:34:16.669Z,100596.90
2022-11-05T01:36:47.473Z,100600.53
2022-11-05T01:39:18.230Z,100599.05
2022-11-05T01:41:49.349Z,100602.37
2022-11-05T01:44:55.899Z,100598.05
2022-11-05T01:47:39.846Z,100597.15
2022-11-05T01:50:23.943Z,100597.39
2022-11-05T01:53:00.382Z,100600.23
2022-11-05T01:55:36.415Z,100600.84
2022-11-05T01:58:10.538Z,100598.94
2022-11-05T02:00:42.555Z,100602.93
2022-11-05T02:03:15.912Z,100608.48
2022-11-05T02:05:47.381Z,100614.42
2022-11-05T02:08:25.440Z,100612.05
2022-11-05T02:10:56.291Z,100607.81
2022-11-05T02:13:26.686Z,100613.98
2022-11-05T02:16:04.170Z,100619.55
2022-11-05T02:18:44.075Z,100619.91
2022-11-05T02:24:46.126Z,100623.88
2022-11-05T02:27:34.804Z,100626.77
2022-11-05T02:30:12.135Z,100625.19
2022-11-05T02:33:03.420Z,100627.14
2022-11-05T02:36:01.993Z,100625.55
2022-11-05T02:38:44.203Z,100626.81
2022-11-05T02:41:24.639Z,100624.86
2022-11-05T02:44:11.392Z,100626.67
2022-11-05T02:46:50.804Z,100625.31
2022-11-05T02:49:33.314Z,100623.08
2022-11-05T02:52:10.527Z,100624.14
2022-11-05T02:54:45.237Z,100623.90
2022-11-05T02:57:15.752Z,100626.27
2022-11-05T02:59:46.477Z,100632.45
2022-11-05T03:02:17.374Z,100635.80
2022-11-05T03:04:48.040Z,100633.15
2022-11-05T03:07:32.280Z,100630.77
2022-11-05T03:10:17.481Z,100633.13
2022-11-05T03:12:59.816Z,100631.44
2022-11-05T03:15:42.845Z,100632.27
2022-11-05T03:18:23.496Z,100632.15
2022-11-05T03:21:01.970Z,100641.29
2022-11-05T03:23:39.808Z,100638.45
2022-11-05T03:26:17.679Z,100639.77
2022-11-05T03:28:54.191Z,100647.20
2022-11-05T03:31:26.757Z,100644.91
2022-11-05T03:33:59.331Z,100644.84
2022-11-05T03:36:33.311Z,100650.91
2022-11-05T03:39:08.375Z,100653.36
2022-11-05T03:41:43.352Z,100652.86
2022-11-05T03:44:17.535Z,100664.71
2022-11-05T03:46:51.135Z,100666.45
2022-11-05T03:49:26.339Z,100670.20
2022-11-05T03:52:03.083Z,100670.45
2022-11-05T03:54:34.567Z,100674.91
2022-11-05T03:57:09.882Z,100674.98
2022-11-05T03:59:45.063Z,100672.41
2022-11-05T04:02:17.426Z,100676.84
2022-11-05T04:04:48.136Z,100678.86
2022-11-05T04:07:35.835Z,100680.74
2022-11-05T04:10:39.505Z,100686.58
2022-11-05T04:13:27.946Z,100694.09
2022-11-05T04:16:16.996Z,100695.77
2022-11-05T04:18:47.377Z,100697.10
2022-11-05T04:21:35.197Z,100703.69
2022-11-05T04:24:10.375Z,100703.86
2022-11-05T04:26:43.623Z,100701.26
2022-11-05T04:29:32.046Z,100706.36
2022-11-05T04:32:02.359Z,100713.64
2022-11-05T04:34:33.327Z,100710.38
2022-11-05T04:37:03.671Z,100710.52
2022-11-05T04:39:34.109Z,100710.77
2022-11-05T04:42:04.599Z,100714.20
2022-11-05T04:44:35.210Z,100714.39
2022-11-05T04:47:05.878Z,100717.88
2022-11-05T04:49:36.428Z,100720.77
2022-11-05T04:52:06.932Z,100721.48
2022-11-05T04:54:37.314Z,100724.95
2022-11-05T04:57:07.734Z,100724.04
2022-11-05T04:59:38.092Z,100725.77
2022-11-05T05:02:08.800Z,100723.08
2022-11-05T05:04:39.327Z,100728.73
2022-11-05T05:07:10.340Z,100731.70
2022-11-05T05:09:40.794Z,100732.38
2022-11-05T05:12:11.445Z,100735.60
2022-11-05T05:14:42.172Z,100740.77
2022-11-05T05:17:13.247Z,100742.61
2022-11-05T05:20:01.112Z,100749.88
2022-11-05T05:22:30.163Z,100748.39
2022-11-05T05:25:00.880Z,100751.27
2022-11-05T05:27:32.055Z,100757.18
2022-11-05T05:30:03.434Z,100759.73
2022-11-05T05:32:34.200Z,100759.90
2022-11-05T05:35:04.724Z,100762.89
2022-11-05T05:37:35.695Z,100766.55
2022-11-05T05:40:06.487Z,100771.77
2022-11-05T05:42:42.670Z,100774.05
2022-11-05T05:45:14.011Z,100779.48
2022-11-05T05:47:44.750Z,100780.63
2022-11-05T05:50:15.502Z,100782.48
2022-11-05T05:52:46.155Z,100782.78
2022-11-05T05:55:16.596Z,100784.59
2022-11-05T05:57:47.304Z,100781.67
2022-11-05T06:00:18.756Z,100782.91
2022-11-05T06:02:49.549Z,100782.46
2022-11-05T06:05:20.624Z,100783.42
2022-11-05T06:07:57.881Z,100787.81
2022-11-05T06:10:28.669Z,100792.48
2022-11-05T06:13:01.342Z,100795.69
2022-11-05T06:15:35.929Z,100795.96
2022-11-05T06:18:06.928Z,100803.46
2022-11-05T06:20:37.360Z,100808.97
2022-11-05T06:23:08.355Z,100808.41
2022-11-05T06:25:41.347Z,100817.11
2022-11-05T06:28:12.572Z,100818.46
2022-11-05T06:30:43.506Z,100820.40
2022-11-05T06:33:14.364Z,100820.46
2022-11-05T06:35:44.836Z,100825.77
2022-11-05T06:38:15.259Z,100827.05
2022-11-05T06:40:45.631Z,100825.16
2022-11-05T06:43:16.142Z,100828.48
2022-11-05T06:45:46.879Z,100831.77
2022-11-05T06:48:17.722Z,100831.34
2022-11-05T06:50:48.427Z,100833.07
2022-11-05T06:53:19.733Z,100830.35
2022-11-05T06:55:50.476Z,100837.55
2022-11-05T06:58:21.020Z,100838.98
2022-11-05T07:00:51.803Z,100837.27
2022-11-05T07:03:22.241Z,100837.25
2022-11-05T07:05:53.716Z,100843.08
2022-11-05T07:08:24.245Z,100844.30
2022-11-05T07:10:54.707Z,100844.52
2022-11-05T07:13:25.135Z,100849.25
2022-11-05T07:15:55.570Z,100852.84
2022-11-05T07:18:26.357Z,100856.23
2022-11-05T07:20:57.063Z,100859.12
2022-11-05T07:23:27.737Z,100857.78
2022-11-05T07:26:00.534Z,100858.66
2022-11-05T07:28:31.415Z,100865.18
2022-11-05T07:31:02.509Z,100867.79
2022-11-05T07:33:36.531Z,100872.56
2022-11-05T07:36:09.376Z,100881.16
2022-11-05T07:38:40.097Z,100884.42
2022-11-05T07:41:10.864Z,100882.59
2022-11-05T07:43:42.213Z,100885.94
2022-11-05T07:46:14.028Z,100890.38
2022-11-05T07:48:44.850Z,100890.17
2022-11-05T07:51:15.631Z,100893.26
2022-11-05T07:53:48.218Z,100895.02
2022-11-05T07:56:19.133Z,100903.22
2022-11-05T07:58:49.664Z,100900.90
2022-11-05T08:01:20.284Z,100906.50
2022-11-05T08:03:51.244Z,100908.34
2022-11-05T08:06:21.989Z,100913.83
2022-11-05T08:08:52.479Z,100916.16
2022-11-05T08:11:23.457Z,100914.61
2022-11-05T08:13:53.835Z,100916.77
2022-11-05T08:16:24.266Z,100912.70
2022-11-05T08:18:54.766Z,100911.33
2022-11-05T08:21:25.257Z,100907.30
2022-11-05T08:23:56.603Z,100909.13
2022-11-05T08:26:27.094Z,100910.82
2022-11-05T08:28:57.888Z,100913.15
2022-11-05T08:31:29.430Z,100915.67
2022-11-05T08:34:02.702Z,100919.56
2022-11-05T08:36:33.364Z,100917.91
2022-11-05T08:39:04.254Z,100921.27
2022-11-05T08:41:34.995Z,100922.94
2022-11-05T08:44:05.663Z,100929.35
2022-11-05T08:46:41.400Z,100930.54
2022-11-05T08:49:12.404Z,100933.04
2022-11-05T08:51:44.301Z,100932.70
2022-11-05T08:54:15.215Z,100939.61
2022-11-05T08:56:45.633Z,100944.06
2022-11-05T08:59:16.081Z,100943.73
2022-11-05T09:01:47.319Z,100948.48
2022-11-05T09:04:17.847Z,100950.98
2022-11-05T09:06:48.552Z,100952.07
2022-11-05T09:09:19.002Z,100955.08
2022-11-05T09:12:10.998Z,100957.86
2022-11-05T09:14:40.336Z,100959.44
2022-11-05T09:17:19.670Z,100959.31
2022-11-05T09:19:50.323Z,100956.02
2022-11-05T09:22:21.029Z,100959.41
2022-11-05T09:24:51.430Z,100964.85
2022-11-05T09:27:22.197Z,100961.98
2022-11-05T09:29:52.548Z,100966.27
2022-11-05T09:32:23.296Z,100967.65
2022-11-05T09:34:53.734Z,100970.89
2022-11-05T09:37:24.182Z,100971.17
2022-11-05T09:39:55.219Z,100975.47
2022-11-05T09:42:30.978Z,100976.14
2022-11-05T09:45:05.314Z,100976.48
2022-11-05T09:47:41.843Z,100980.33
2022-11-05T09:50:19.967Z,100984.11
2022-11-05T09:52:50.520Z,100985.52
2022-11-05T09:55:27.837Z,100988.36
2022-11-05T09:58:00.640Z,100989.73
2022-11-05T10:00:32.509Z,100988.55
2022-11-05T10:03:08.069Z,100988.91
2022-11-05T10:05:41.402Z,100994.20
2022-11-05T10:08:19.308Z,100996.59
2022-11-05T10:10:54.856Z,100999.87
2022-11-05T10:13:30.860Z,101009.58
2022-11-05T10:16:05.059Z,101011.71
2022-11-05T10:18:38.263Z,101012.67
2022-11-05T10:21:15.647Z,101010.92
2022-11-05T10:23:47.142Z,101004.16
2022-11-05T10:26:22.184Z,101007.78
2022-11-05T10:28:53.942Z,101013.38
2022-11-05T10:31:25.116Z,101015.27
2022-11-05T10:34:01.911Z,101012.67
2022-11-05T10:36:35.423Z,101012.92
2022-11-05T10:39:12.137Z,101015.80
2022-11-05T10:42:02.090Z,101015.77
2022-11-05T10:44:38.784Z,101015.98
2022-11-05T10:47:36.231Z,101018.83
2022-11-05T10:50:11.007Z,101018.69
2022-11-05T10:52:46.922Z,101021.62
2022-11-05T10:55:21.948Z,101025.54
2022-11-05T10:57:52.896Z,101029.46
2022-11-05T11:00:30.013Z,101021.31
2022-11-05T11:03:03.107Z,101025.20
2022-11-05T11:05:40.228Z,101020.39
2022-11-05T11:08:26.688Z,101022.67
2022-11-05T11:11:00.382Z,101023.63
2022-11-05T11:13:47.274Z,101026.99
2022-11-05T11:16:21.335Z,101032.40
2022-11-05T11:18:56.544Z,101034.97
2022-11-05T11:21:27.816Z,101033.30
2022-11-05T11:24:00.520Z,101037.65
2022-11-05T11:26:33.805Z,101031.33
2022-11-05T11:29:09.350Z,101038.25
2022-11-05T11:31:42.662Z,101039.05
2022-11-05T11:34:23.306Z,101037.23
2022-11-05T11:37:02.667Z,101035.52
2022-11-05T11:39:34.487Z,101031.84
2022-11-05T11:42:11.178Z,101025.55
2022-11-05T11:44:47.664Z,101025.16
2022-11-05T11:47:20.508Z,101024.59
2022-11-05T11:49:54.254Z,101023.27
2022-11-05T11:52:31.211Z,101024.00
2022-11-05T11:55:21.373Z,101021.75
2022-11-05T11:57:54.021Z,101022.75
2022-11-05T12:00:27.058Z,101021.52
2022-11-05T12:03:23.652Z,101025.30
2022-11-05T12:06:04.736Z,101022.70
2022-11-05T12:08:56.529Z,101024.23
2022-11-05T12:11:36.064Z,101023.72
2022-11-05T12:14:18.472Z,101020.67
2022-11-05T12:17:10.807Z,101016.98
2022-11-05T12:19:58.730Z,101019.02
2022-11-05T12:22:36.667Z,101017.14
2022-11-05T12:25:19.379Z,101013.07
2022-11-05T12:28:11.328Z,101010.30
2022-11-05T12:30:53.779Z,101009.84
2022-11-05T12:33:34.875Z,101009.16
2022-11-05T12:36:22.627Z,101003.64
2022-11-05T12:38:58.978Z,101002.90
2022-11-05T12:41:35.142Z,101001.35
2022-11-05T12:44:21.663Z,100998.36
2022-11-05T12:47:05.088Z,100995.38
2022-11-05T12:49:52.331Z,100998.80
2022-11-05T12:52:39.751Z,100993.96
2022-11-05T12:55:16.161Z,100994.19
2022-11-05T12:57:50.213Z,100994.39
2022-11-05T13:00:23.184Z,101001.40
2022-11-05T13:02:57.809Z,100995.86
2022-11-05T13:05:36.220Z,101003.70
2022-11-05T13:08:10.113Z,101000.27
2022-11-05T13:10:45.686Z,101003.58
2022-11-05T13:13:34.890Z,101006.38
2022-11-05T13:16:11.415Z,101006.20
2022-11-05T13:18:47.091Z,101006.95
2022-11-05T13:21:19.035Z,101006.68
2022-11-05T13:23:54.342Z,101005.13
2022-11-05T13:26:28.385Z,101006.34
2022-11-05T13:29:05.996Z,101004.16
2022-11-05T13:31:41.206Z,100998.15
2022-11-05T13:34:14.128Z,101006.61
2022-11-05T13:37:10.342Z,100998.11
2022-11-05T13:39:48.307Z,101001.52
2022-11-05T13:42:49.225Z,100998.04
2022-11-05T13:46:06.251Z,100995.78
2022-11-05T13:48:53.321Z,100997.70
2022-11-05T13:51:56.728Z,100996.63
2022-11-05T13:55:17.824Z,100998.73
2022-11-05T13:58:04.931Z,100999.45
2022-11-05T14:00:43.092Z,100998.86
2022-11-05T14:03:21.180Z,101001.48
2022-11-05T14:05:59.475Z,100997.92
2022-11-05T14:08:31.302Z,100999.84
2022-11-05T14:11:04.664Z,100999.42
2022-11-05T14:13:39.152Z,100999.77
2022-11-05T14:16:17.783Z,100998.11
2022-11-05T14:18:53.344Z,100999.09
2022-11-05T14:21:47.377Z,101005.17
2022-11-05T14:24:43.073Z,101010.05
2022-11-05T14:27:52.206Z,101009.07
2022-11-05T14:30:44.872Z,101010.92
2022-11-05T14:33:33.180Z,101008.98
2022-11-05T14:36:34.977Z,101007.95
2022-11-05T14:39:23.891Z,101009.54
2022-11-05T14:42:17.584Z,101010.21
2022-11-05T14:45:04.446Z,101007.60
2022-11-05T14:47:38.366Z,101004.84
2022-11-05T14:50:19.474Z,101009.89
2022-11-05T14:52:55.895Z,101007.88
2022-11-05T14:55:34.178Z,101011.39
2022-11-05T14:58:25.318Z,101012.19
2022-11-05T15:00:56.932Z,101014.89
2022-11-05T15:03:52.591Z,101020.47
2022-11-05T15:06:29.238Z,101021.19
2022-11-05T15:09:22.307Z,101021.47
2022-11-05T15:12:03.860Z,101023.10
2022-11-05T15:14:40.705Z,101016.02
2022-11-05T15:17:18.823Z,101018.05
2022-11-05T15:19:50.474Z,101017.66
2022-11-05T15:22:30.386Z,101020.31
2022-11-05T15:25:01.889Z,101021.13
2022-11-05T15:27:51.931Z,101022.13
2022-11-05T15:30:26.356Z,101019.17
2022-11-05T15:33:08.814Z,101018.41
2022-11-05T15:35:42.485Z,101021.54
2022-11-05T15:38:36.156Z,101020.33
2022-11-05T15:41:15.902Z,101018.98
2022-11-05T15:43:48.688Z,101019.48
2022-11-05T15:46:21.554Z,101020.17
2022-11-05T15:48:54.368Z,101025.77
2022-11-05T15:51:26.519Z,101026.98
2022-11-05T15:54:24.327Z,101025.79
2022-11-05T15:56:55.971Z,101027.27
2022-11-05T15:59:29.238Z,101025.26
2022-11-05T16:02:05.779Z,101021.73
2022-11-05T16:04:37.372Z,101025.99
2022-11-05T16:07:13.187Z,101028.81
2022-11-05T16:09:53.990Z,101033.70
2022-11-05T16:12:33.670Z,101033.69
2022-11-05T16:15:19.493Z,101044.52
2022-11-05T16:17:53.435Z,101038.73
2022-11-05T16:20:29.628Z,101035.55
2022-11-05T16:23:02.453Z,101043.48
2022-11-05T16:25:38.950Z,101046.09
2022-11-05T16:28:23.124Z,101044.23
2022-11-05T16:31:02.295Z,101042.32
2022-11-05T16:33:41.094Z,101045.36
2022-11-05T16:36:12.263Z,101040.76
2022-11-05T16:38:43.063Z,101041.09
2022-11-05T16:41:18.375Z,101041.12
2022-11-05T16:43:55.943Z,101034.25
2022-11-05T16:46:29.640Z,101028.70
2022-11-05T16:49:00.060Z,101029.25
2022-11-05T16:51:31.600Z,101022.41
2022-11-05T16:54:02.290Z,101027.73
2022-11-05T16:56:33.589Z,101030.77
2022-11-05T16:59:05.136Z,101032.48
2022-11-05T17:01:38.182Z,101036.21
2022-11-05T17:04:09.614Z,101035.73
2022-11-05T17:06:40.223Z,101044.92
2022-11-05T17:09:10.612Z,101050.55
2022-11-05T17:11:41.811Z,101049.04
2022-11-05T17:14:13.968Z,101043.69
2022-11-05T17:16:44.350Z,101046.56
2022-11-05T17:19:17.619Z,101045.08
2022-11-05T17:21:49.991Z,101045.38
2022-11-05T17:24:20.498Z,101045.39
2022-11-05T17:26:51.004Z,101045.81
2022-11-05T17:29:21.512Z,101053.76
2022-11-05T17:31:52.306Z,101052.89
2022-11-05T17:34:22.630Z,101048.95
2022-11-05T17:36:53.078Z,101053.08
2022-11-05T17:39:28.730Z,101057.09
2022-11-05T17:42:01.844Z,101057.81
2022-11-05T17:44:33.079Z,101060.02
2022-11-05T17:47:04.059Z,101062.82
2022-11-05T17:49:34.491Z,101063.61
2022-11-05T17:52:05.522Z,101066.11
2022-11-05T17:54:35.916Z,101061.69
2022-11-05T17:57:06.883Z,101067.84
2022-11-05T17:59:37.822Z,101065.08
2022-11-05T18:02:10.302Z,101063.95
2022-11-05T18:04:41.767Z,101067.65
2022-11-05T18:07:16.924Z,101068.33
2022-11-05T18:09:48.203Z,101078.48
2022-11-05T18:12:19.683Z,101083.16
2022-11-05T18:14:51.266Z,101081.58
2022-11-05T18:17:21.956Z,101078.95
2022-11-05T18:19:52.870Z,101080.05
2022-11-05T18:22:23.451Z,101083.16
2022-11-05T18:24:54.023Z,101080.54
2022-11-05T18:27:27.609Z,101082.02
2022-11-05T18:29:58.070Z,101074.73
2022-11-05T18:32:29.004Z,101082.84
2022-11-05T18:34:59.787Z,101078.65
2022-11-05T18:37:30.936Z,101075.88
2022-11-05T18:40:01.458Z,101072.91
2022-11-05T18:42:31.983Z,101071.73
2022-11-05T18:45:02.918Z,101075.35
2022-11-05T18:47:34.176Z,101073.22
2022-11-05T18:50:05.812Z,101069.41
2022-11-05T18:52:36.371Z,101067.70
2022-11-05T18:55:08.576Z,101062.85
2022-11-05T18:57:41.752Z,101055.70
2022-11-05T19:00:14.676Z,101049.44
2022-11-05T19:02:45.539Z,101047.43
2022-11-05T19:05:32.176Z,101045.27
2022-11-05T19:08:03.047Z,101041.85
2022-11-05T19:10:33.971Z,101049.83
2022-11-05T19:13:04.781Z,101049.46
2022-11-05T19:15:35.483Z,101048.46
2022-11-05T19:18:06.481Z,101046.91
2022-11-05T19:20:38.020Z,101053.11
2022-11-05T19:23:08.691Z,101058.73
2022-11-05T19:25:40.519Z,101059.95
2022-11-05T19:28:12.420Z,101059.38
2022-11-05T19:30:43.064Z,101061.70
2022-11-05T19:33:13.676Z,101060.06
2022-11-05T19:35:44.328Z,101061.02
2022-11-05T19:38:15.288Z,101060.51
2022-11-05T19:40:46.000Z,101060.00
2022-11-05T19:43:16.797Z,101057.02
2022-11-05T19:45:48.003Z,101052.65
2022-11-05T19:48:20.067Z,101052.69
2022-11-05T19:50:50.785Z,101056.20
2022-11-05T19:53:21.234Z,101046.39
2022-11-05T19:55:51.995Z,101047.23
2022-11-05T19:58:22.499Z,101048.77
2022-11-05T20:00:55.876Z,101051.59
2022-11-05T20:03:26.690Z,101053.39
2022-11-05T20:06:02.396Z,101051.29
2022-11-05T20:08:37.050Z,101051.92
2022-11-05T20:11:18.840Z,101053.34
2022-11-05T20:13:49.726Z,101052.27
2022-11-05T20:16:25.420Z,101051.52
2022-11-05T20:18:56.396Z,101056.52
2022-11-05T20:21:27.142Z,101059.58
2022-11-05T20:23:59.388Z,101056.87
2022-11-05T20:26:30.129Z,101050.25
2022-11-05T20:29:01.228Z,101050.64
2022-11-05T20:31:31.914Z,101056.30
2022-11-05T20:34:02.707Z,101057.92
2022-11-05T20:36:33.575Z,101058.64
2022-11-05T20:39:05.678Z,101060.06
2022-11-05T20:41:36.259Z,101058.51
2022-11-05T20:44:07.032Z,101057.80
2022-11-05T20:46:37.399Z,101060.57
2022-11-05T20:49:08.375Z,101067.90
2022-11-05T20:51:38.856Z,101063.36
2022-11-05T20:54:10.282Z,101066.05
2022-11-05T20:56:40.948Z,101061.05
2022-11-05T20:59:12.400Z,101061.20
2022-11-05T21:01:43.933Z,101061.10
2022-11-05T21:04:25.778Z,101060.25
2022-11-05T21:06:56.214Z,101058.07
2022-11-05T21:09:27.562Z,101052.52
2022-11-05T21:12:14.989Z,101059.61
2022-11-05T21:14:46.887Z,101065.47
2022-11-05T21:17:19.534Z,101064.99
2022-11-05T21:19:51.598Z,101064.56
2022-11-05T21:22:22.087Z,101060.30
2022-11-05T21:24:52.555Z,101055.83
2022-11-05T21:27:23.231Z,101057.13
2022-11-05T21:29:53.885Z,101066.04
2022-11-05T21:32:24.334Z,101068.98
2022-11-05T21:34:55.605Z,101074.25
2022-11-05T21:37:26.717Z,101075.81
2022-11-05T21:39:57.143Z,101070.37
2022-11-05T21:42:29.560Z,101068.09
2022-11-05T21:45:00.883Z,101075.36
2022-11-05T21:47:31.387Z,101074.58
2022-11-05T21:50:02.683Z,101069.84
2022-11-05T21:52:51.725Z,101069.27
2022-11-05T21:55:40.168Z,101067.75
2022-11-05T21:58:32.351Z,101066.83
2022-11-05T22:01:04.446Z,101064.71
2022-11-05T22:03:35.000Z,101063.41
2022-11-05T22:06:05.922Z,101063.15
2022-11-05T22:08:36.411Z,101061.33
2022-11-05T22:11:07.283Z,101064.03
2022-11-05T22:13:37.694Z,101062.70
2022-11-05T22:16:09.981Z,101060.89
2022-11-05T22:18:40.798Z,101055.03
2022-11-05T22:21:15.804Z,101053.32
2022-11-05T22:23:46.920Z,101048.59
2022-11-05T22:26:17.658Z,101045.29
2022-11-05T22:28:48.241Z,101044.52
2022-11-05T22:31:19.316Z,101048.10
2022-11-05T22:33:50.355Z,101042.41
2022-11-05T22:36:21.024Z,101034.97
2022-11-05T22:38:52.044Z,101033.27
2022-11-05T22:41:23.734Z,101031.60
2022-11-05T22:43:55.789Z,101030.81
2022-11-05T22:46:27.935Z,101031.23
2022-11-05T22:48:59.179Z,101037.50
2022-11-05T22:51:31.805Z,101037.91
2022-11-05T22:54:03.210Z,101033.40
2022-11-05T22:56:38.572Z,101031.93
2022-11-05T22:59:12.053Z,101030.64
2022-11-05T23:01:43.326Z,101027.13
2022-11-05T23:04:15.105Z,101030.30
2022-11-05T23:07:03.285Z,101030.36
2022-11-05T23:09:53.601Z,101029.51
2022-11-05T23:12:27.420Z,101027.65
2022-11-05T23:14:59.644Z,101027.42
2022-11-05T23:17:48.658Z,101026.86
2022-11-05T23:20:39.982Z,101022.49
2022-11-05T23:23:30.382Z,101015.00
2022-11-05T23:26:21.600Z,101009.30
2022-11-05T23:28:52.088Z,101002.98
2022-11-05T23:31:40.179Z,101003.59
2022-11-05T23:34:10.610Z,100998.14
2022-11-05T23:36:58.976Z,100996.95
2022-11-05T23:39:29.432Z,100991.81
2022-11-05T23:42:17.845Z,100989.61
2022-11-05T23:45:10.326Z,100980.95
2022-11-05T23:48:01.799Z,100981.63
2022-11-05T23:50:37.095Z,100973.76
2022-11-05T23:53:08.975Z,100969.60
2022-11-05T23:55:40.513Z,100970.67
2022-11-05T23:58:12.667Z,100972.39
